sensor_id;sensor_type;location;lat;lon;timestamp;temperature;humidity
14095;DHT22;18096;48.142;16.290;2023-01-09T00:01:46;3.30;99.90
14095;DHT22;18096;48.142;16.290;2023-01-09T00:04:13;3.30;99.90
14095;DHT22;18096;48.142;16.290;2023-01-09T00:06:39;3.40;99.90
14095;DHT22;18096;48.142;16.290;2023-01-09T00:09:06;3.40;99.90
14095;DHT22;18096;48.142;16.290;2023-01-09T00:11:32;3.30;99.90
14095;DHT22;18096;48.142;16.290;2023-01-09T00:13:58;3.30;99.90
14095;DHT22;18096;48.142;16.290;2023-01-09T00:16:24;3.30;99.90
14095;DHT22;18096;48.142;16.290;2023-01-09T00:18:50;3.30;99.90
14095;DHT22;18096;48.142;16.290;2023-01-09T00:21:18;3.30;99.90
14095;DHT22;18096;48.142;16.290;2023-01-09T00:23:44;3.30;99.90
14095;DHT22;18096;48.142;16.290;2023-01-09T00:26:18;3.40;99.90
14095;DHT22;18096;48.142;16.290;2023-01-09T00:28:45;3.40;99.90
14095;DHT22;18096;48.142;16.290;2023-01-09T00:31:11;3.40;99.90
14095;DHT22;18096;48.142;16.290;2023-01-09T00:33:41;3.40;99.90
14095;DHT22;18096;48.142;16.290;2023-01-09T00:36:07;3.40;99.90
14095;DHT22;18096;48.142;16.290;2023-01-09T00:38:33;3.50;99.90
14095;DHT22;18096;48.142;16.290;2023-01-09T00:40:59;3.50;99.90
14095;DHT22;18096;48.142;16.290;2023-01-09T00:43:28;3.50;99.90
14095;DHT22;18096;48.142;16.290;2023-01-09T00:45:55;3.50;99.90
14095;DHT22;18096;48.142;16.290;2023-01-09T00:48:23;3.50;99.90
14095;DHT22;18096;48.142;16.290;2023-01-09T00:50:51;3.50;99.90
14095;DHT22;18096;48.142;16.290;2023-01-09T00:53:20;3.50;99.90
14095;DHT22;18096;48.142;16.290;2023-01-09T00:55:48;3.60;99.90
14095;DHT22;18096;48.142;16.290;2023-01-09T00:58:14;3.50;99.90
14095;DHT22;18096;48.142;16.290;2023-01-09T01:00:40;3.50;99.90
14095;DHT22;18096;48.142;16.290;2023-01-09T01:03:06;3.60;99.90
14095;DHT22;18096;48.142;16.290;2023-01-09T01:05:31;3.60;99.90
14095;DHT22;18096;48.142;16.290;2023-01-09T01:08:17;3.70;99.90
14095;DHT22;18096;48.142;16.290;2023-01-09T01:10:44;3.70;99.90
14095;DHT22;18096;48.142;16.290;2023-01-09T01:13:10;3.70;99.90
14095;DHT22;18096;48.142;16.290;2023-01-09T01:15:40;3.80;99.90
14095;DHT22;18096;48.142;16.290;2023-01-09T01:18:06;3.80;99.90
14095;DHT22;18096;48.142;16.290;2023-01-09T01:20:32;3.70;99.90
14095;DHT22;18096;48.142;16.290;2023-01-09T01:22:58;3.80;99.90
14095;DHT22;18096;48.142;16.290;2023-01-09T01:25:23;3.80;99.90
14095;DHT22;18096;48.142;16.290;2023-01-09T01:27:49;3.80;99.90
14095;DHT22;18096;48.142;16.290;2023-01-09T01:30:16;3.80;99.90
14095;DHT22;18096;48.142;16.290;2023-01-09T01:32:42;3.80;99.90
14095;DHT22;18096;48.142;16.290;2023-01-09T01:35:09;3.90;99.90
14095;DHT22;18096;48.142;16.290;2023-01-09T01:37:36;3.90;99.90
14095;DHT22;18096;48.142;16.290;2023-01-09T01:40:03;3.90;99.90
14095;DHT22;18096;48.142;16.290;2023-01-09T01:42:29;3.90;99.90
14095;DHT22;18096;48.142;16.290;2023-01-09T01:50:30;3.90;99.90
14095;DHT22;18096;48.142;16.290;2023-01-09T01:53:08;3.90;99.90
14095;DHT22;18096;48.142;16.290;2023-01-09T01:55:38;4.00;99.90
14095;DHT22;18096;48.142;16.290;2023-01-09T01:58:06;4.00;99.90
14095;DHT22;18096;48.142;16.290;2023-01-09T02:00:39;4.00;99.90
14095;DHT22;18096;48.142;16.290;2023-01-09T02:03:06;4.00;99.90
14095;DHT22;18096;48.142;16.290;2023-01-09T02:05:33;4.00;99.90
14095;DHT22;18096;48.142;16.290;2023-01-09T02:08:00;4.10;99.90
14095;DHT22;18096;48.142;16.290;2023-01-09T02:10:26;4.00;99.90
14095;DHT22;18096;48.142;16.290;2023-01-09T02:12:52;4.00;99.90
14095;DHT22;18096;48.142;16.290;2023-01-09T02:15:19;4.00;99.90
14095;DHT22;18096;48.142;16.290;2023-01-09T02:18:07;4.00;99.90
14095;DHT22;18096;48.142;16.290;2023-01-09T02:20:45;4.00;99.90
14095;DHT22;18096;48.142;16.290;2023-01-09T02:29:43;4.10;99.90
14095;DHT22;18096;48.142;16.290;2023-01-09T02:35:16;4.10;99.90
14095;DHT22;18096;48.142;16.290;2023-01-09T02:40:46;4.00;99.90
14095;DHT22;18096;48.142;16.290;2023-01-09T02:43:15;4.00;99.90
14095;DHT22;18096;48.142;16.290;2023-01-09T02:45:41;4.00;99.90
14095;DHT22;18096;48.142;16.290;2023-01-09T02:48:09;4.00;99.90
14095;DHT22;18096;48.142;16.290;2023-01-09T02:50:46;4.00;99.90
14095;DHT22;18096;48.142;16.290;2023-01-09T02:58:45;4.10;99.90
14095;DHT22;18096;48.142;16.290;2023-01-09T03:04:45;4.00;99.90
14095;DHT22;18096;48.142;16.290;2023-01-09T03:07:30;4.10;99.90
14095;DHT22;18096;48.142;16.290;2023-01-09T03:10:39;4.10;99.90
14095;DHT22;18096;48.142;16.290;2023-01-09T03:13:08;4.10;99.90
14095;DHT22;18096;48.142;16.290;2023-01-09T03:15:37;4.10;99.90
14095;DHT22;18096;48.142;16.290;2023-01-09T03:18:06;4.10;99.90
14095;DHT22;18096;48.142;16.290;2023-01-09T03:20:33;4.20;99.90
14095;DHT22;18096;48.142;16.290;2023-01-09T03:23:04;4.10;99.90
14095;DHT22;18096;48.142;16.290;2023-01-09T03:25:31;4.20;99.90
14095;DHT22;18096;48.142;16.290;2023-01-09T03:28:09;4.10;99.90
14095;DHT22;18096;48.142;16.290;2023-01-09T03:30:37;4.10;99.90
14095;DHT22;18096;48.142;16.290;2023-01-09T03:33:03;4.10;99.90
14095;DHT22;18096;48.142;16.290;2023-01-09T03:35:29;4.10;99.90
14095;DHT22;18096;48.142;16.290;2023-01-09T03:37:54;4.20;99.90
14095;DHT22;18096;48.142;16.290;2023-01-09T03:40:20;4.20;99.90
14095;DHT22;18096;48.142;16.290;2023-01-09T03:42:46;4.20;99.90
14095;DHT22;18096;48.142;16.290;2023-01-09T03:45:12;4.20;99.90
14095;DHT22;18096;48.142;16.290;2023-01-09T03:47:38;4.20;99.90
14095;DHT22;18096;48.142;16.290;2023-01-09T03:50:04;4.20;99.90
14095;DHT22;18096;48.142;16.290;2023-01-09T03:52:31;4.20;99.90
14095;DHT22;18096;48.142;16.290;2023-01-09T03:54:56;4.20;99.90
14095;DHT22;18096;48.142;16.290;2023-01-09T03:57:22;4.30;99.90
14095;DHT22;18096;48.142;16.290;2023-01-09T03:59:48;4.30;99.90
14095;DHT22;18096;48.142;16.290;2023-01-09T04:02:14;4.30;99.90
14095;DHT22;18096;48.142;16.290;2023-01-09T04:04:40;4.40;99.90
14095;DHT22;18096;48.142;16.290;2023-01-09T04:07:06;4.40;99.90
14095;DHT22;18096;48.142;16.290;2023-01-09T04:09:31;4.40;99.90
14095;DHT22;18096;48.142;16.290;2023-01-09T04:11:57;4.40;99.90
14095;DHT22;18096;48.142;16.290;2023-01-09T04:14:23;4.40;99.90
14095;DHT22;18096;48.142;16.290;2023-01-09T04:16:48;4.40;99.90
14095;DHT22;18096;48.142;16.290;2023-01-09T04:19:14;4.50;99.90
14095;DHT22;18096;48.142;16.290;2023-01-09T04:21:40;4.50;99.90
14095;DHT22;18096;48.142;16.290;2023-01-09T04:24:06;4.50;99.90
14095;DHT22;18096;48.142;16.290;2023-01-09T04:26:31;4.50;99.90
14095;DHT22;18096;48.142;16.290;2023-01-09T04:28:57;4.50;99.90
14095;DHT22;18096;48.142;16.290;2023-01-09T04:31:23;4.50;99.90
14095;DHT22;18096;48.142;16.290;2023-01-09T04:33:49;4.50;99.90
14095;DHT22;18096;48.142;16.290;2023-01-09T04:36:14;4.50;99.90
14095;DHT22;18096;48.142;16.290;2023-01-09T04:38:40;4.50;99.90
14095;DHT22;18096;48.142;16.290;2023-01-09T04:41:06;4.50;99.90
14095;DHT22;18096;48.142;16.290;2023-01-09T04:43:31;4.60;99.90
14095;DHT22;18096;48.142;16.290;2023-01-09T04:45:57;4.60;99.90
14095;DHT22;18096;48.142;16.290;2023-01-09T04:48:23;4.70;99.90
14095;DHT22;18096;48.142;16.290;2023-01-09T04:50:48;4.80;99.90
14095;DHT22;18096;48.142;16.290;2023-01-09T04:53:14;4.80;99.90
14095;DHT22;18096;48.142;16.290;2023-01-09T04:55:40;4.80;99.90
14095;DHT22;18096;48.142;16.290;2023-01-09T04:58:06;4.80;99.90
14095;DHT22;18096;48.142;16.290;2023-01-09T05:00:31;4.80;99.90
14095;DHT22;18096;48.142;16.290;2023-01-09T05:02:57;4.80;99.90
14095;DHT22;18096;48.142;16.290;2023-01-09T05:05:23;4.80;99.90
14095;DHT22;18096;48.142;16.290;2023-01-09T05:07:48;4.90;99.90
14095;DHT22;18096;48.142;16.290;2023-01-09T05:10:14;4.90;99.90
14095;DHT22;18096;48.142;16.290;2023-01-09T05:12:40;5.00;99.90
14095;DHT22;18096;48.142;16.290;2023-01-09T05:15:07;5.10;99.90
14095;DHT22;18096;48.142;16.290;2023-01-09T05:17:33;5.20;99.90
14095;DHT22;18096;48.142;16.290;2023-01-09T05:19:59;5.20;99.90
14095;DHT22;18096;48.142;16.290;2023-01-09T05:22:25;5.30;99.90
14095;DHT22;18096;48.142;16.290;2023-01-09T05:24:51;5.40;99.90
14095;DHT22;18096;48.142;16.290;2023-01-09T05:27:17;5.40;99.90
14095;DHT22;18096;48.142;16.290;2023-01-09T05:29:43;5.50;99.90
14095;DHT22;18096;48.142;16.290;2023-01-09T05:32:08;5.50;99.90
14095;DHT22;18096;48.142;16.290;2023-01-09T05:34:34;5.60;99.90
14095;DHT22;18096;48.142;16.290;2023-01-09T05:37:00;5.70;99.90
14095;DHT22;18096;48.142;16.290;2023-01-09T05:39:25;5.80;99.90
14095;DHT22;18096;48.142;16.290;2023-01-09T05:41:51;5.80;99.90
14095;DHT22;18096;48.142;16.290;2023-01-09T05:44:17;5.90;99.90
14095;DHT22;18096;48.142;16.290;2023-01-09T05:46:42;5.90;99.90
14095;DHT22;18096;48.142;16.290;2023-01-09T05:49:08;6.00;99.90
14095;DHT22;18096;48.142;16.290;2023-01-09T05:51:34;6.00;99.90
14095;DHT22;18096;48.142;16.290;2023-01-09T05:53:59;6.10;99.90
14095;DHT22;18096;48.142;16.290;2023-01-09T05:56:26;6.20;99.90
14095;DHT22;18096;48.142;16.290;2023-01-09T05:58:52;6.20;99.90
14095;DHT22;18096;48.142;16.290;2023-01-09T06:01:17;6.30;99.90
14095;DHT22;18096;48.142;16.290;2023-01-09T06:03:43;6.40;99.90
14095;DHT22;18096;48.142;16.290;2023-01-09T06:06:09;6.50;99.90
14095;DHT22;18096;48.142;16.290;2023-01-09T06:08:34;6.50;99.90
14095;DHT22;18096;48.142;16.290;2023-01-09T06:11:00;6.60;99.90
14095;DHT22;18096;48.142;16.290;2023-01-09T06:13:26;6.60;99.90
14095;DHT22;18096;48.142;16.290;2023-01-09T06:15:51;6.70;99.90
14095;DHT22;18096;48.142;16.290;2023-01-09T06:18:17;6.80;99.90
14095;DHT22;18096;48.142;16.290;2023-01-09T06:20:44;6.80;99.90
14095;DHT22;18096;48.142;16.290;2023-01-09T06:23:10;6.90;99.90
14095;DHT22;18096;48.142;16.290;2023-01-09T06:25:36;6.90;99.90
14095;DHT22;18096;48.142;16.290;2023-01-09T06:28:01;7.00;99.90
14095;DHT22;18096;48.142;16.290;2023-01-09T06:30:27;7.40;99.90
14095;DHT22;18096;48.142;16.290;2023-01-09T06:32:53;7.70;99.90
14095;DHT22;18096;48.142;16.290;2023-01-09T06:35:18;7.90;99.90
14095;DHT22;18096;48.142;16.290;2023-01-09T06:37:48;7.90;99.90
14095;DHT22;18096;48.142;16.290;2023-01-09T06:40:14;7.90;99.90
14095;DHT22;18096;48.142;16.290;2023-01-09T06:42:44;7.90;99.90
14095;DHT22;18096;48.142;16.290;2023-01-09T06:45:11;7.90;99.90
14095;DHT22;18096;48.142;16.290;2023-01-09T06:47:37;7.80;99.90
14095;DHT22;18096;48.142;16.290;2023-01-09T06:50:04;7.80;99.90
14095;DHT22;18096;48.142;16.290;2023-01-09T06:52:30;7.90;99.90
14095;DHT22;18096;48.142;16.290;2023-01-09T06:54:55;7.90;99.90
14095;DHT22;18096;48.142;16.290;2023-01-09T06:57:21;7.90;99.90
14095;DHT22;18096;48.142;16.290;2023-01-09T06:59:47;7.90;99.90
14095;DHT22;18096;48.142;16.290;2023-01-09T07:02:20;7.90;99.90
14095;DHT22;18096;48.142;16.290;2023-01-09T07:04:45;8.00;99.90
14095;DHT22;18096;48.142;16.290;2023-01-09T07:07:12;8.00;99.90
14095;DHT22;18096;48.142;16.290;2023-01-09T07:09:37;8.00;99.90
14095;DHT22;18096;48.142;16.290;2023-01-09T07:12:03;8.10;99.90
14095;DHT22;18096;48.142;16.290;2023-01-09T07:14:29;8.10;99.90
14095;DHT22;18096;48.142;16.290;2023-01-09T07:16:55;8.10;99.90
14095;DHT22;18096;48.142;16.290;2023-01-09T07:19:21;8.20;99.90
14095;DHT22;18096;48.142;16.290;2023-01-09T07:21:46;8.20;99.90
14095;DHT22;18096;48.142;16.290;2023-01-09T07:24:12;8.20;99.90
14095;DHT22;18096;48.142;16.290;2023-01-09T07:26:38;8.30;99.90
14095;DHT22;18096;48.142;16.290;2023-01-09T07:29:03;8.30;99.90
14095;DHT22;18096;48.142;16.290;2023-01-09T07:31:29;8.30;99.90
14095;DHT22;18096;48.142;16.290;2023-01-09T07:33:55;8.40;99.90
14095;DHT22;18096;48.142;16.290;2023-01-09T07:36:20;8.40;99.90
14095;DHT22;18096;48.142;16.290;2023-01-09T07:38:47;8.40;99.90
14095;DHT22;18096;48.142;16.290;2023-01-09T07:41:13;8.40;99.90
14095;DHT22;18096;48.142;16.290;2023-01-09T07:43:39;8.40;99.90
14095;DHT22;18096;48.142;16.290;2023-01-09T07:46:05;8.50;99.90
14095;DHT22;18096;48.142;16.290;2023-01-09T07:48:31;8.50;99.90
14095;DHT22;18096;48.142;16.290;2023-01-09T07:50:57;8.50;99.90
14095;DHT22;18096;48.142;16.290;2023-01-09T07:53:23;8.50;99.90
14095;DHT22;18096;48.142;16.290;2023-01-09T07:55:49;8.50;99.90
14095;DHT22;18096;48.142;16.290;2023-01-09T07:58:14;8.50;99.90
14095;DHT22;18096;48.142;16.290;2023-01-09T08:00:40;8.40;99.90
14095;DHT22;18096;48.142;16.290;2023-01-09T08:03:06;8.40;99.90
14095;DHT22;18096;48.142;16.290;2023-01-09T08:05:32;8.40;99.90
14095;DHT22;18096;48.142;16.290;2023-01-09T08:07:58;8.30;99.90
14095;DHT22;18096;48.142;16.290;2023-01-09T08:10:24;8.20;99.90
14095;DHT22;18096;48.142;16.290;2023-01-09T08:12:50;8.10;99.90
14095;DHT22;18096;48.142;16.290;2023-01-09T08:15:16;7.90;99.90
14095;DHT22;18096;48.142;16.290;2023-01-09T08:17:42;7.80;99.90
14095;DHT22;18096;48.142;16.290;2023-01-09T08:20:13;7.70;99.90
14095;DHT22;18096;48.142;16.290;2023-01-09T08:22:45;7.60;99.90
14095;DHT22;18096;48.142;16.290;2023-01-09T08:25:14;7.60;99.90
14095;DHT22;18096;48.142;16.290;2023-01-09T08:27:40;7.60;99.90
14095;DHT22;18096;48.142;16.290;2023-01-09T08:30:07;7.50;99.90
14095;DHT22;18096;48.142;16.290;2023-01-09T08:32:34;7.50;99.90
14095;DHT22;18096;48.142;16.290;2023-01-09T08:35:00;7.50;99.90
14095;DHT22;18096;48.142;16.290;2023-01-09T08:37:26;7.50;99.90
14095;DHT22;18096;48.142;16.290;2023-01-09T08:39:52;7.50;99.90
14095;DHT22;18096;48.142;16.290;2023-01-09T08:42:18;7.40;99.90
14095;DHT22;18096;48.142;16.290;2023-01-09T08:45:02;7.40;99.90
14095;DHT22;18096;48.142;16.290;2023-01-09T08:47:46;7.40;99.90
14095;DHT22;18096;48.142;16.290;2023-01-09T08:50:12;7.40;99.90
14095;DHT22;18096;48.142;16.290;2023-01-09T08:52:38;7.40;99.90
14095;DHT22;18096;48.142;16.290;2023-01-09T08:55:04;7.30;99.90
14095;DHT22;18096;48.142;16.290;2023-01-09T08:57:30;7.20;99.90
14095;DHT22;18096;48.142;16.290;2023-01-09T08:59:55;7.10;99.90
14095;DHT22;18096;48.142;16.290;2023-01-09T09:02:21;7.00;99.90
14095;DHT22;18096;48.142;16.290;2023-01-09T09:04:47;7.00;99.90
14095;DHT22;18096;48.142;16.290;2023-01-09T09:07:16;7.00;99.90
14095;DHT22;18096;48.142;16.290;2023-01-09T09:09:41;6.90;99.90
14095;DHT22;18096;48.142;16.290;2023-01-09T09:12:07;6.90;99.90
14095;DHT22;18096;48.142;16.290;2023-01-09T09:14:33;6.90;99.90
14095;DHT22;18096;48.142;16.290;2023-01-09T09:17:17;6.80;99.90
14095;DHT22;18096;48.142;16.290;2023-01-09T09:19:42;6.80;99.90
14095;DHT22;18096;48.142;16.290;2023-01-09T09:22:08;6.80;99.90
14095;DHT22;18096;48.142;16.290;2023-01-09T09:24:34;6.80;99.90
14095;DHT22;18096;48.142;16.290;2023-01-09T09:26:59;6.80;99.90
14095;DHT22;18096;48.142;16.290;2023-01-09T09:29:25;6.90;99.90
14095;DHT22;18096;48.142;16.290;2023-01-09T09:31:51;7.00;99.90
14095;DHT22;18096;48.142;16.290;2023-01-09T09:34:16;7.10;99.90
14095;DHT22;18096;48.142;16.290;2023-01-09T09:36:43;7.20;99.90
14095;DHT22;18096;48.142;16.290;2023-01-09T09:39:08;7.30;99.90
14095;DHT22;18096;48.142;16.290;2023-01-09T09:52:58;7.70;99.90
14095;DHT22;18096;48.142;16.290;2023-01-09T09:55:32;7.70;99.90
14095;DHT22;18096;48.142;16.290;2023-01-09T09:58:09;7.80;99.90
14095;DHT22;18096;48.142;16.290;2023-01-09T10:00:37;7.80;99.90
14095;DHT22;18096;48.142;16.290;2023-01-09T10:03:06;7.90;99.90
14095;DHT22;18096;48.142;16.290;2023-01-09T10:05:42;7.90;99.90
14095;DHT22;18096;48.142;16.290;2023-01-09T10:10:53;7.90;99.90
14095;DHT22;18096;48.142;16.290;2023-01-09T10:13:22;7.90;99.90
14095;DHT22;18096;48.142;16.290;2023-01-09T10:19:14;7.90;99.90
14095;DHT22;18096;48.142;16.290;2023-01-09T10:30:36;7.80;99.90
14095;DHT22;18096;48.142;16.290;2023-01-09T10:33:45;7.80;99.90
14095;DHT22;18096;48.142;16.290;2023-01-09T10:38:40;7.80;99.90
14095;DHT22;18096;48.142;16.290;2023-01-09T10:41:33;7.80;99.90
14095;DHT22;18096;48.142;16.290;2023-01-09T10:44:06;7.80;99.90
14095;DHT22;18096;48.142;16.290;2023-01-09T10:46:47;7.80;99.90
14095;DHT22;18096;48.142;16.290;2023-01-09T10:49:16;7.80;99.90
14095;DHT22;18096;48.142;16.290;2023-01-09T10:51:49;7.70;99.90
14095;DHT22;18096;48.142;16.290;2023-01-09T10:54:17;7.70;99.90
14095;DHT22;18096;48.142;16.290;2023-01-09T10:56:57;7.80;99.90
14095;DHT22;18096;48.142;16.290;2023-01-09T10:59:25;7.70;99.90
14095;DHT22;18096;48.142;16.290;2023-01-09T11:01:52;7.70;99.90
14095;DHT22;18096;48.142;16.290;2023-01-09T11:04:31;7.70;99.90
14095;DHT22;18096;48.142;16.290;2023-01-09T11:07:10;7.80;99.90
14095;DHT22;18096;48.142;16.290;2023-01-09T11:09:57;7.90;99.90
14095;DHT22;18096;48.142;16.290;2023-01-09T11:12:26;7.90;99.90
14095;DHT22;18096;48.142;16.290;2023-01-09T11:14:52;7.90;99.90
14095;DHT22;18096;48.142;16.290;2023-01-09T11:17:20;8.00;99.90
14095;DHT22;18096;48.142;16.290;2023-01-09T11:20:25;8.00;99.90
14095;DHT22;18096;48.142;16.290;2023-01-09T11:22:53;8.00;99.90
14095;DHT22;18096;48.142;16.290;2023-01-09T11:25:22;8.10;99.90
14095;DHT22;18096;48.142;16.290;2023-01-09T11:28:04;8.10;99.90
14095;DHT22;18096;48.142;16.290;2023-01-09T11:30:32;8.20;99.90
14095;DHT22;18096;48.142;16.290;2023-01-09T11:32:58;8.20;99.90
14095;DHT22;18096;48.142;16.290;2023-01-09T11:35:28;8.20;99.90
14095;DHT22;18096;48.142;16.290;2023-01-09T11:38:14;8.20;99.90
14095;DHT22;18096;48.142;16.290;2023-01-09T11:40:52;8.20;99.90
14095;DHT22;18096;48.142;16.290;2023-01-09T11:43:36;8.20;99.90
14095;DHT22;18096;48.142;16.290;2023-01-09T11:46:06;8.20;99.90
14095;DHT22;18096;48.142;16.290;2023-01-09T11:48:41;8.20;99.90
14095;DHT22;18096;48.142;16.290;2023-01-09T11:51:20;8.20;99.90
14095;DHT22;18096;48.142;16.290;2023-01-09T11:56:22;8.20;99.90
14095;DHT22;18096;48.142;16.290;2023-01-09T11:58:48;8.30;99.90
14095;DHT22;18096;48.142;16.290;2023-01-09T12:06:56;8.30;99.90
14095;DHT22;18096;48.142;16.290;2023-01-09T12:32:46;8.50;99.90
14095;DHT22;18096;48.142;16.290;2023-01-09T12:35:29;8.50;99.90
14095;DHT22;18096;48.142;16.290;2023-01-09T12:52:13;8.70;99.90
14095;DHT22;18096;48.142;16.290;2023-01-09T13:00:03;8.70;99.90
14095;DHT22;18096;48.142;16.290;2023-01-09T13:03:04;8.70;99.90
14095;DHT22;18096;48.142;16.290;2023-01-09T13:05:39;8.70;99.90
14095;DHT22;18096;48.142;16.290;2023-01-09T13:08:23;8.70;99.90
14095;DHT22;18096;48.142;16.290;2023-01-09T13:10:51;8.70;99.90
14095;DHT22;18096;48.142;16.290;2023-01-09T13:13:24;8.70;99.90
14095;DHT22;18096;48.142;16.290;2023-01-09T13:15:54;8.70;99.90
14095;DHT22;18096;48.142;16.290;2023-01-09T13:18:46;8.70;99.90
14095;DHT22;18096;48.142;16.290;2023-01-09T13:21:13;8.70;99.90
14095;DHT22;18096;48.142;16.290;2023-01-09T13:26:16;8.70;99.90
14095;DHT22;18096;48.142;16.290;2023-01-09T13:31:41;8.60;99.90
14095;DHT22;18096;48.142;16.290;2023-01-09T13:34:13;8.70;99.90
14095;DHT22;18096;48.142;16.290;2023-01-09T13:36:49;8.70;99.90
14095;DHT22;18096;48.142;16.290;2023-01-09T13:39:24;8.70;99.90
14095;DHT22;18096;48.142;16.290;2023-01-09T13:41:58;8.70;99.90
14095;DHT22;18096;48.142;16.290;2023-01-09T13:44:46;8.70;99.90
14095;DHT22;18096;48.142;16.290;2023-01-09T13:59:48;8.70;99.90
14095;DHT22;18096;48.142;16.290;2023-01-09T14:08:18;8.60;99.90
14095;DHT22;18096;48.142;16.290;2023-01-09T14:10:57;8.60;99.90
14095;DHT22;18096;48.142;16.290;2023-01-09T14:13:37;8.60;99.90
14095;DHT22;18096;48.142;16.290;2023-01-09T14:16:18;8.60;99.90
14095;DHT22;18096;48.142;16.290;2023-01-09T14:19:30;8.60;99.90
14095;DHT22;18096;48.142;16.290;2023-01-09T14:21:56;8.70;99.90
14095;DHT22;18096;48.142;16.290;2023-01-09T14:24:44;8.70;99.90
14095;DHT22;18096;48.142;16.290;2023-01-09T14:33:44;8.60;99.90
14095;DHT22;18096;48.142;16.290;2023-01-09T14:38:50;8.60;99.90
14095;DHT22;18096;48.142;16.290;2023-01-09T14:44:02;8.60;99.90
14095;DHT22;18096;48.142;16.290;2023-01-09T14:46:32;8.60;99.90
14095;DHT22;18096;48.142;16.290;2023-01-09T14:49:20;8.60;99.90
14095;DHT22;18096;48.142;16.290;2023-01-09T14:51:49;8.60;99.90
14095;DHT22;18096;48.142;16.290;2023-01-09T14:54:27;8.60;99.90
14095;DHT22;18096;48.142;16.290;2023-01-09T14:56:54;8.50;99.90
14095;DHT22;18096;48.142;16.290;2023-01-09T14:59:20;8.60;99.90
14095;DHT22;18096;48.142;16.290;2023-01-09T15:01:47;8.50;99.90
14095;DHT22;18096;48.142;16.290;2023-01-09T15:04:33;8.50;99.90
14095;DHT22;18096;48.142;16.290;2023-01-09T15:07:04;8.50;99.90
14095;DHT22;18096;48.142;16.290;2023-01-09T15:12:05;8.50;99.90
14095;DHT22;18096;48.142;16.290;2023-01-09T15:14:42;8.50;99.90
14095;DHT22;18096;48.142;16.290;2023-01-09T15:17:29;8.50;99.90
14095;DHT22;18096;48.142;16.290;2023-01-09T15:19:57;8.50;99.90
14095;DHT22;18096;48.142;16.290;2023-01-09T15:22:28;8.40;99.90
14095;DHT22;18096;48.142;16.290;2023-01-09T15:24:54;8.40;99.90
14095;DHT22;18096;48.142;16.290;2023-01-09T15:27:20;8.50;99.90
14095;DHT22;18096;48.142;16.290;2023-01-09T15:29:47;8.50;99.90
14095;DHT22;18096;48.142;16.290;2023-01-09T15:32:27;8.50;99.90
14095;DHT22;18096;48.142;16.290;2023-01-09T15:34:54;8.50;99.90
14095;DHT22;18096;48.142;16.290;2023-01-09T15:37:38;8.40;99.90
14095;DHT22;18096;48.142;16.290;2023-01-09T15:40:06;8.40;99.90
14095;DHT22;18096;48.142;16.290;2023-01-09T15:42:38;8.40;99.90
14095;DHT22;18096;48.142;16.290;2023-01-09T15:45:40;8.40;99.90
14095;DHT22;18096;48.142;16.290;2023-01-09T15:53:26;8.50;99.90
14095;DHT22;18096;48.142;16.290;2023-01-09T15:58:38;8.40;99.90
14095;DHT22;18096;48.142;16.290;2023-01-09T16:03:49;8.50;99.90
14095;DHT22;18096;48.142;16.290;2023-01-09T16:06:37;8.50;99.90
14095;DHT22;18096;48.142;16.290;2023-01-09T16:09:04;8.50;99.90
14095;DHT22;18096;48.142;16.290;2023-01-09T16:11:39;8.50;99.90
14095;DHT22;18096;48.142;16.290;2023-01-09T16:14:21;8.50;99.90
14095;DHT22;18096;48.142;16.290;2023-01-09T16:16:47;8.50;99.90
14095;DHT22;18096;48.142;16.290;2023-01-09T16:24:42;8.50;99.90
14095;DHT22;18096;48.142;16.290;2023-01-09T16:27:32;8.50;99.90
14095;DHT22;18096;48.142;16.290;2023-01-09T16:30:02;8.50;99.90
14095;DHT22;18096;48.142;16.290;2023-01-09T16:32:34;8.50;99.90
14095;DHT22;18096;48.142;16.290;2023-01-09T16:35:06;8.50;99.90
14095;DHT22;18096;48.142;16.290;2023-01-09T16:37:38;8.50;99.90
14095;DHT22;18096;48.142;16.290;2023-01-09T16:42:33;8.50;99.90
14095;DHT22;18096;48.142;16.290;2023-01-09T16:45:18;8.50;99.90
14095;DHT22;18096;48.142;16.290;2023-01-09T16:47:44;8.40;99.90
14095;DHT22;18096;48.142;16.290;2023-01-09T16:50:11;8.40;99.90
14095;DHT22;18096;48.142;16.290;2023-01-09T16:52:37;8.40;99.90
14095;DHT22;18096;48.142;16.290;2023-01-09T16:55:03;8.40;99.90
14095;DHT22;18096;48.142;16.290;2023-01-09T16:57:30;8.40;99.90
14095;DHT22;18096;48.142;16.290;2023-01-09T16:59:59;8.40;99.90
14095;DHT22;18096;48.142;16.290;2023-01-09T17:02:25;8.40;99.90
14095;DHT22;18096;48.142;16.290;2023-01-09T17:04:51;8.40;99.90
14095;DHT22;18096;48.142;16.290;2023-01-09T17:07:21;8.40;99.90
14095;DHT22;18096;48.142;16.290;2023-01-09T17:09:47;8.40;99.90
14095;DHT22;18096;48.142;16.290;2023-01-09T17:12:20;8.40;99.90
14095;DHT22;18096;48.142;16.290;2023-01-09T17:14:47;8.40;99.90
14095;DHT22;18096;48.142;16.290;2023-01-09T17:17:14;8.50;99.90
14095;DHT22;18096;48.142;16.290;2023-01-09T17:19:40;8.40;99.90
14095;DHT22;18096;48.142;16.290;2023-01-09T17:22:06;8.40;99.90
14095;DHT22;18096;48.142;16.290;2023-01-09T17:24:32;8.40;99.90
14095;DHT22;18096;48.142;16.290;2023-01-09T17:27:32;8.40;99.90
14095;DHT22;18096;48.142;16.290;2023-01-09T17:30:18;8.40;99.90
14095;DHT22;18096;48.142;16.290;2023-01-09T17:32:43;8.40;99.90
14095;DHT22;18096;48.142;16.290;2023-01-09T17:35:11;8.40;99.90
14095;DHT22;18096;48.142;16.290;2023-01-09T17:37:37;8.40;99.90
14095;DHT22;18096;48.142;16.290;2023-01-09T17:40:10;8.50;99.90
14095;DHT22;18096;48.142;16.290;2023-01-09T17:42:36;8.50;99.90
14095;DHT22;18096;48.142;16.290;2023-01-09T17:45:02;8.50;99.90
14095;DHT22;18096;48.142;16.290;2023-01-09T17:47:28;8.50;99.90
14095;DHT22;18096;48.142;16.290;2023-01-09T17:49:54;8.40;99.90
14095;DHT22;18096;48.142;16.290;2023-01-09T17:52:19;8.40;99.90
14095;DHT22;18096;48.142;16.290;2023-01-09T17:54:46;8.40;99.90
14095;DHT22;18096;48.142;16.290;2023-01-09T17:57:15;8.40;99.90
14095;DHT22;18096;48.142;16.290;2023-01-09T17:59:42;8.40;99.90
14095;DHT22;18096;48.142;16.290;2023-01-09T18:02:18;8.30;99.90
14095;DHT22;18096;48.142;16.290;2023-01-09T18:04:44;8.40;99.90
14095;DHT22;18096;48.142;16.290;2023-01-09T18:07:15;8.40;99.90
14095;DHT22;18096;48.142;16.290;2023-01-09T18:09:41;8.40;99.90
14095;DHT22;18096;48.142;16.290;2023-01-09T18:12:07;8.30;99.90
14095;DHT22;18096;48.142;16.290;2023-01-09T18:14:33;8.30;99.90
14095;DHT22;18096;48.142;16.290;2023-01-09T18:17:00;8.30;99.90
14095;DHT22;18096;48.142;16.290;2023-01-09T18:19:27;8.30;99.90
14095;DHT22;18096;48.142;16.290;2023-01-09T18:21:54;8.30;99.90
14095;DHT22;18096;48.142;16.290;2023-01-09T18:24:19;8.30;99.90
14095;DHT22;18096;48.142;16.290;2023-01-09T18:26:45;8.30;99.90
14095;DHT22;18096;48.142;16.290;2023-01-09T18:29:11;8.30;99.90